sensor_id;sensor_type;location;lat;lon;timestamp;temperature;humidity
15111;DHT22;7656;51.954;7.998;2022-12-20T19:48:11;10.50;99.90
15111;DHT22;7656;51.954;7.998;2022-12-20T19:52:32;10.50;99.90
15111;DHT22;7656;51.954;7.998;2022-12-20T19:56:53;10.30;99.90
15111;DHT22;7656;51.954;7.998;2022-12-20T20:01:15;10.50;99.90
15111;DHT22;7656;51.954;7.998;2022-12-20T20:05:37;10.60;99.90
15111;DHT22;7656;51.954;7.998;2022-12-20T20:09:58;10.90;99.90
15111;DHT22;7656;51.954;7.998;2022-12-20T20:14:19;11.00;99.90
15111;DHT22;7656;51.954;7.998;2022-12-20T20:18:40;10.90;99.90
15111;DHT22;7656;51.954;7.998;2022-12-20T20:23:01;11.10;99.90
15111;DHT22;7656;51.954;7.998;2022-12-20T20:27:22;11.20;99.90
15111;DHT22;7656;51.954;7.998;2022-12-20T20:31:43;11.50;99.90
15111;DHT22;7656;51.954;7.998;2022-12-20T20:36:05;11.40;99.90
15111;DHT22;7656;51.954;7.998;2022-12-20T20:40:26;11.50;99.90
15111;DHT22;7656;51.954;7.998;2022-12-20T20:44:47;11.50;99.90
15111;DHT22;7656;51.954;7.998;2022-12-20T20:49:08;11.50;99.90
15111;DHT22;7656;51.954;7.998;2022-12-20T20:53:29;11.50;99.90
15111;DHT22;7656;51.954;7.998;2022-12-20T20:57:51;11.50;99.90
15111;DHT22;7656;51.954;7.998;2022-12-20T21:02:12;11.20;99.90
15111;DHT22;7656;51.954;7.998;2022-12-20T21:06:34;11.10;99.90
15111;DHT22;7656;51.954;7.998;2022-12-20T21:10:56;11.30;99.90
15111;DHT22;7656;51.954;7.998;2022-12-20T21:15:18;11.30;99.90
15111;DHT22;7656;51.954;7.998;2022-12-20T21:19:39;11.40;99.90
15111;DHT22;7656;51.954;7.998;2022-12-20T21:24:01;11.30;99.90
15111;DHT22;7656;51.954;7.998;2022-12-20T21:28:22;11.40;99.90
15111;DHT22;7656;51.954;7.998;2022-12-20T21:32:43;11.30;99.90
15111;DHT22;7656;51.954;7.998;2022-12-20T21:37:04;11.30;99.90
15111;DHT22;7656;51.954;7.998;2022-12-20T21:41:28;11.50;99.90
15111;DHT22;7656;51.954;7.998;2022-12-20T21:45:50;11.50;99.90
15111;DHT22;7656;51.954;7.998;2022-12-20T21:50:11;11.50;99.90
15111;DHT22;7656;51.954;7.998;2022-12-20T21:54:34;11.60;99.90
15111;DHT22;7656;51.954;7.998;2022-12-20T21:58:55;11.70;99.90
15111;DHT22;7656;51.954;7.998;2022-12-20T22:03:17;11.70;99.90
15111;DHT22;7656;51.954;7.998;2022-12-20T22:07:38;11.80;99.90
15111;DHT22;7656;51.954;7.998;2022-12-20T22:11:59;11.80;99.90
15111;DHT22;7656;51.954;7.998;2022-12-20T22:16:22;11.80;99.90
15111;DHT22;7656;51.954;7.998;2022-12-20T22:20:45;11.80;99.90
15111;DHT22;7656;51.954;7.998;2022-12-20T22:25:07;11.80;99.90
15111;DHT22;7656;51.954;7.998;2022-12-20T22:29:28;11.90;99.90
15111;DHT22;7656;51.954;7.998;2022-12-20T22:33:50;11.90;99.90
15111;DHT22;7656;51.954;7.998;2022-12-20T22:38:12;11.90;99.90
15111;DHT22;7656;51.954;7.998;2022-12-20T22:42:33;11.90;99.90
15111;DHT22;7656;51.954;7.998;2022-12-20T22:46:54;11.80;99.90
15111;DHT22;7656;51.954;7.998;2022-12-20T22:51:21;11.60;99.90
15111;DHT22;7656;51.954;7.998;2022-12-20T22:55:44;11.60;99.90
15111;DHT22;7656;51.954;7.998;2022-12-20T23:00:07;11.70;99.90
15111;DHT22;7656;51.954;7.998;2022-12-20T23:04:32;11.80;99.90
15111;DHT22;7656;51.954;7.998;2022-12-20T23:08:53;11.80;99.90
15111;DHT22;7656;51.954;7.998;2022-12-20T23:13:14;11.60;99.90
15111;DHT22;7656;51.954;7.998;2022-12-20T23:17:55;11.70;99.90
15111;DHT22;7656;51.954;7.998;2022-12-20T23:22:16;11.70;99.90
15111;DHT22;7656;51.954;7.998;2022-12-20T23:26:56;11.70;99.90
15111;DHT22;7656;51.954;7.998;2022-12-20T23:31:17;11.70;99.90
15111;DHT22;7656;51.954;7.998;2022-12-20T23:35:39;11.80;99.90
15111;DHT22;7656;51.954;7.998;2022-12-20T23:40:00;11.70;99.90
15111;DHT22;7656;51.954;7.998;2022-12-20T23:44:21;11.70;99.90
15111;DHT22;7656;51.954;7.998;2022-12-20T23:48:42;11.80;99.90
15111;DHT22;7656;51.954;7.998;2022-12-20T23:53:03;11.90;99.90
15111;DHT22;7656;51.954;7.998;2022-12-20T23:57:24;11.90;99.90
